Time,TemperatureF,DewpointF,PressureIn,WindDirection,WindDirectionDegrees,WindSpeedMPH,WindSpeedGustMPH,Humidity,HourlyPrecipIn,Conditions,Clouds,dailyrainin,SoftwareType,DateUTC
2013-04-07 00:00:00,27.7,21.4,30.32,NNE,15,0.0,0.0,77,0.00,,,0.00,Wunderground v.1.15,2013-04-07 04:00:00,
2013-04-07 00:02:00,27.6,21.3,30.33,ESE,102,0.0,0.0,77,0.00,,,0.00,Wunderground v.1.15,2013-04-07 04:02:00,
2013-04-07 00:03:00,27.6,21.3,30.33,SE,127,0.0,0.0,77,0.00,,,0.00,Wunderground v.1.15,2013-04-07 04:03:00,
2013-04-07 00:07:00,27.6,21.6,30.32,SE,132,0.0,0.0,78,0.00,,,0.00,Wunderground v.1.15,2013-04-07 04:07:00,
2013-04-07 00:13:00,27.6,21.6,30.33,WNW,294,0.0,0.0,78,0.00,,,0.00,Wunderground v.1.15,2013-04-07 04:13:00,
2013-04-07 00:18:00,27.5,21.5,30.33,West,274,0.0,0.0,78,0.00,,,0.00,Wunderground v.1.15,2013-04-07 04:18:00,
2013-04-07 00:23:00,27.3,21.3,30.33,West,274,0.0,0.0,78,0.00,,,0.00,Wunderground v.1.15,2013-04-07 04:23:00,
2013-04-07 00:30:00,27.1,21.5,30.33,West,274,0.0,0.0,79,0.00,,,0.00,Wunderground v.1.15,2013-04-07 04:30:00,
2013-04-07 00:35:00,27.1,21.5,30.33,West,274,0.0,0.0,79,0.00,,,0.00,Wunderground v.1.15,2013-04-07 04:35:00,
2013-04-07 00:42:00,26.9,21.3,30.33,West,274,0.0,0.0,79,0.00,,,0.00,Wunderground v.1.15,2013-04-07 04:42:00,
2013-04-07 00:48:00,26.7,21.4,30.33,West,274,0.0,0.0,80,0.00,,,0.00,Wunderground v.1.15,2013-04-07 04:48:00,
2013-04-07 00:53:00,26.7,21.4,30.32,NNW,338,0.0,0.0,80,0.00,,,0.00,Wunderground v.1.15,2013-04-07 04:53:00,
2013-04-07 00:59:00,26.9,21.6,30.32,NNW,338,0.0,0.0,80,0.00,,,0.00,Wunderground v.1.15,2013-04-07 04:59:00,
2013-04-07 01:05:00,26.7,21.4,30.32,NNW,338,0.0,0.0,80,0.00,,,0.00,Wunderground v.1.15,2013-04-07 05:05:00,
2013-04-07 01:11:00,26.6,21.6,30.32,NNW,337,0.0,0.0,81,0.00,,,0.00,Wunderground v.1.15,2013-04-07 05:11:00,
2013-04-07 01:17:00,26.4,21.4,30.32,NNW,338,0.0,0.0,81,0.00,,,0.00,Wunderground v.1.15,2013-04-07 05:17:00,
2013-04-07 01:22:00,26.1,21.1,30.32,NNW,337,0.0,0.0,81,0.00,,,0.00,Wunderground v.1.15,2013-04-07 05:22:00,
2013-04-07 01:27:00,25.9,21.2,30.32,NNW,338,0.0,0.0,82,0.00,,,0.00,Wunderground v.1.15,2013-04-07 05:27:00,
2013-04-07 01:32:00,25.8,21.1,30.32,NNW,337,0.0,0.0,82,0.00,,,0.00,Wunderground v.1.15,2013-04-07 05:32:00,
2013-04-07 01:37:00,25.7,21.0,30.32,NNW,338,0.0,0.0,82,0.00,,,0.00,Wunderground v.1.15,2013-04-07 05:37:00,
2013-04-07 01:43:00,25.3,20.9,30.32,NNW,338,0.0,0.0,83,0.00,,,0.00,Wunderground v.1.15,2013-04-07 05:43:00,
2013-04-07 01:48:00,25.2,20.8,30.32,NNW,338,0.0,0.0,83,0.00,,,0.00,Wunderground v.1.15,2013-04-07 05:48:00,
2013-04-07 01:53:00,25.2,21.0,30.31,NNW,337,0.0,0.0,84,0.00,,,0.00,Wunderground v.1.15,2013-04-07 05:53:00,
2013-04-07 02:00:00,25.3,21.1,30.31,NNW,338,0.0,0.0,84,0.00,,,0.00,Wunderground v.1.15,2013-04-07 06:00:00,
2013-04-07 02:05:00,25.3,21.1,30.31,NNW,338,0.0,0.0,84,0.00,,,0.00,Wunderground v.1.15,2013-04-07 06:05:00,
2013-04-07 02:10:00,25.1,20.9,30.31,NNW,338,0.0,0.0,84,0.00,,,0.00,Wunderground v.1.15,2013-04-07 06:10:00,
2013-04-07 02:16:00,25.1,21.2,30.31,NNW,338,0.0,0.0,85,0.00,,,0.00,Wunderground v.1.15,2013-04-07 06:16:00,
2013-04-07 02:22:00,25.0,20.8,30.30,NNW,338,0.0,0.0,84,0.00,,,0.00,Wunderground v.1.15,2013-04-07 06:22:00,
2013-04-07 02:27:00,25.1,21.2,30.30,NNW,338,0.0,0.0,85,0.00,,,0.00,Wunderground v.1.15,2013-04-07 06:27:00,
2013-04-07 02:33:00,25.1,21.2,30.30,NNW,337,0.0,0.0,85,0.00,,,0.00,Wunderground v.1.15,2013-04-07 06:33:00,
2013-04-07 02:38:00,25.0,20.8,30.30,NNW,337,0.0,0.0,84,0.00,,,0.00,Wunderground v.1.15,2013-04-07 06:38:00,
2013-04-07 02:44:00,24.8,20.9,30.30,NNW,338,0.0,0.0,85,0.00,,,0.00,Wunderground v.1.15,2013-04-07 06:44:00,
2013-04-07 02:49:00,24.8,20.9,30.30,NNW,338,0.0,0.0,85,0.00,,,0.00,Wunderground v.1.15,2013-04-07 06:49:00,
2013-04-07 02:55:00,25.1,21.2,30.30,NNW,338,0.0,0.0,85,0.00,,,0.00,Wunderground v.1.15,2013-04-07 06:55:00,
2013-04-07 03:00:00,25.2,21.3,30.30,NNW,337,0.0,0.0,85,0.00,,,0.00,Wunderground v.1.15,2013-04-07 07:00:00,
2013-04-07 03:05:00,25.0,21.1,30.30,NNW,338,0.0,0.0,85,0.00,,,0.00,Wunderground v.1.15,2013-04-07 07:05:00,
2013-04-07 03:12:00,25.0,21.1,30.30,NNW,337,0.0,0.0,85,0.00,,,0.00,Wunderground v.1.15,2013-04-07 07:12:00,
2013-04-07 03:18:00,24.8,21.2,30.29,NNW,338,0.0,0.0,86,0.00,,,0.00,Wunderground v.1.15,2013-04-07 07:18:00,
2013-04-07 03:24:00,24.7,21.1,30.29,NNW,338,0.0,0.0,86,0.00,,,0.00,Wunderground v.1.15,2013-04-07 07:24:00,
2013-04-07 03:29:00,24.8,21.2,30.29,NNW,338,0.0,0.0,86,0.00,,,0.00,Wunderground v.1.15,2013-04-07 07:29:00,
2013-04-07 03:34:00,24.7,21.1,30.29,NNW,338,0.0,0.0,86,0.00,,,0.00,Wunderground v.1.15,2013-04-07 07:34:00,
2013-04-07 03:39:00,24.6,21.3,30.29,NNW,337,0.0,0.0,87,0.00,,,0.00,Wunderground v.1.15,2013-04-07 07:39:00,
2013-04-07 03:45:00,24.6,21.3,30.28,NNW,337,0.0,0.0,87,0.00,,,0.00,Wunderground v.1.15,2013-04-07 07:45:00,
2013-04-07 03:51:00,24.4,21.1,30.29,NNW,337,0.0,0.0,87,0.00,,,0.00,Wunderground v.1.15,2013-04-07 07:51:00,
2013-04-07 03:56:00,24.2,20.9,30.28,NNW,338,0.0,0.0,87,0.00,,,0.00,Wunderground v.1.15,2013-04-07 07:56:00,
2013-04-07 04:02:00,24.2,21.2,30.29,NNW,337,0.0,0.0,88,0.00,,,0.00,Wunderground v.1.15,2013-04-07 08:02:00,
2013-04-07 04:07:00,24.0,20.7,30.29,NNW,338,0.0,0.0,87,0.00,,,0.00,Wunderground v.1.15,2013-04-07 08:07:00,
2013-04-07 04:12:00,23.7,20.4,30.29,NNW,338,0.0,0.0,87,0.00,,,0.00,Wunderground v.1.15,2013-04-07 08:12:00,
2013-04-07 04:17:00,23.8,20.8,30.29,NNW,337,0.0,0.0,88,0.00,,,0.00,Wunderground v.1.15,2013-04-07 08:17:00,
2013-04-07 04:23:00,23.6,20.6,30.29,NNW,337,0.0,0.0,88,0.00,,,0.00,Wunderground v.1.15,2013-04-07 08:23:00,
2013-04-07 04:28:00,23.4,20.4,30.29,NNW,338,0.0,0.0,88,0.00,,,0.00,Wunderground v.1.15,2013-04-07 08:28:00,
2013-04-07 04:34:00,23.3,20.3,30.29,NNW,338,0.0,0.0,88,0.00,,,0.00,Wunderground v.1.15,2013-04-07 08:34:00,
2013-04-07 04:39:00,23.3,20.3,30.29,NNW,338,0.0,0.0,88,0.00,,,0.00,Wunderground v.1.15,2013-04-07 08:39:00,
2013-04-07 04:45:00,23.3,20.5,30.29,NNW,338,0.0,0.0,89,0.00,,,0.00,Wunderground v.1.15,2013-04-07 08:45:00,
2013-04-07 04:50:00,23.1,20.3,30.29,NNW,338,0.0,0.0,89,0.00,,,0.00,Wunderground v.1.15,2013-04-07 08:50:00,
2013-04-07 04:55:00,22.9,20.1,30.29,NNW,338,0.0,0.0,89,0.00,,,0.00,Wunderground v.1.15,2013-04-07 08:55:00,
2013-04-07 05:02:00,23.0,20.2,30.30,NNW,337,0.0,0.0,89,0.00,,,0.00,Wunderground v.1.15,2013-04-07 09:02:00,
2013-04-07 05:08:00,22.8,20.0,30.30,NNW,337,0.0,0.0,89,0.00,,,0.00,Wunderground v.1.15,2013-04-07 09:08:00,
2013-04-07 05:13:00,22.6,19.8,30.30,NNW,338,0.0,0.0,89,0.00,,,0.00,Wunderground v.1.15,2013-04-07 09:13:00,
2013-04-07 05:18:00,22.7,20.2,30.31,NNW,337,0.0,0.0,90,0.00,,,0.00,Wunderground v.1.15,2013-04-07 09:18:00,
2013-04-07 05:23:00,22.8,20.3,30.31,NNW,338,0.0,0.0,90,0.00,,,0.00,Wunderground v.1.15,2013-04-07 09:23:00,
2013-04-07 05:29:00,22.8,20.3,30.31,NNW,338,0.0,0.0,90,0.00,,,0.00,Wunderground v.1.15,2013-04-07 09:29:00,
2013-04-07 05:34:00,23.0,20.5,30.31,NNW,338,0.0,0.0,90,0.00,,,0.00,Wunderground v.1.15,2013-04-07 09:34:00,
2013-04-07 05:39:00,23.0,20.5,30.31,NNW,338,0.0,0.0,90,0.00,,,0.00,Wunderground v.1.15,2013-04-07 09:39:00,
2013-04-07 05:44:00,22.8,20.3,30.31,NNW,338,0.0,0.0,90,0.00,,,0.00,Wunderground v.1.15,2013-04-07 09:44:00,
2013-04-07 05:50:00,22.9,20.4,30.31,NNW,338,0.0,0.0,90,0.00,,,0.00,Wunderground v.1.15,2013-04-07 09:50:00,
2013-04-07 05:55:00,22.8,20.3,30.32,NNW,337,0.0,0.0,90,0.00,,,0.00,Wunderground v.1.15,2013-04-07 09:55:00,
2013-04-07 06:00:00,22.8,20.6,30.32,NNW,337,0.0,0.0,91,0.00,,,0.00,Wunderground v.1.15,2013-04-07 10:00:00,
2013-04-07 06:06:00,22.7,20.2,30.32,West,263,0.0,0.0,90,0.00,,,0.00,Wunderground v.1.15,2013-04-07 10:06:00,
2013-04-07 06:12:00,22.8,20.6,30.32,SSW,204,0.0,2.0,91,0.00,,,0.00,Wunderground v.1.15,2013-04-07 10:12:00,
2013-04-07 06:17:00,22.8,20.6,30.31,SSW,197,0.0,2.0,91,0.00,,,0.00,Wunderground v.1.15,2013-04-07 10:17:00,
2013-04-07 06:23:00,22.9,20.7,30.31,SSW,197,0.0,0.0,91,0.00,,,0.00,Wunderground v.1.15,2013-04-07 10:23:00,
2013-04-07 06:29:00,22.9,20.4,30.32,SSW,197,0.0,0.0,90,0.00,,,0.00,Wunderground v.1.15,2013-04-07 10:29:00,
2013-04-07 06:34:00,22.9,20.7,30.32,SSW,197,0.0,0.0,91,0.00,,,0.00,Wunderground v.1.15,2013-04-07 10:34:00,
2013-04-07 06:40:00,23.0,20.8,30.32,SSW,197,0.0,0.0,91,0.00,,,0.00,Wunderground v.1.15,2013-04-07 10:40:00,
2013-04-07 06:47:00,23.4,21.2,30.33,SSW,197,0.0,2.0,91,0.00,,,0.00,Wunderground v.1.15,2013-04-07 10:47:00,
2013-04-07 06:52:00,23.8,21.6,30.32,SSW,208,0.0,0.0,91,0.00,,,0.00,Wunderground v.1.15,2013-04-07 10:52:00,
2013-04-07 06:57:00,24.2,22.0,30.32,SSW,208,0.0,1.0,91,0.00,,,0.00,Wunderground v.1.15,2013-04-07 10:57:00,
2013-04-07 07:03:00,24.6,22.1,30.32,SSW,208,0.0,1.0,90,0.00,,,0.00,Wunderground v.1.15,2013-04-07 11:03:00,
2013-04-07 07:08:00,25.1,22.6,30.33,SSW,192,1.0,2.0,90,0.00,,,0.00,Wunderground v.1.15,2013-04-07 11:08:00,
2013-04-07 07:14:00,25.8,23.0,30.33,SSW,193,0.0,1.0,89,0.00,,,0.00,Wunderground v.1.15,2013-04-07 11:14:00,
2013-04-07 07:19:00,26.6,23.8,30.33,SSW,193,0.0,1.0,89,0.00,,,0.00,Wunderground v.1.15,2013-04-07 11:19:00,
2013-04-07 07:25:00,28.3,25.2,30.33,SSW,193,0.0,0.0,88,0.00,,,0.00,Wunderground v.1.15,2013-04-07 11:25:00,
2013-04-07 07:30:00,30.0,26.6,30.33,SSW,194,0.0,0.0,87,0.00,,,0.00,Wunderground v.1.15,2013-04-07 11:30:00,
2013-04-07 07:35:00,31.0,26.7,30.33,SSW,205,0.0,0.0,84,0.00,,,0.00,Wunderground v.1.15,2013-04-07 11:35:00,
2013-04-07 07:42:00,32.2,27.3,30.33,SSW,205,0.0,0.0,82,0.00,,,0.00,Wunderground v.1.15,2013-04-07 11:42:00,
2013-04-07 07:48:00,33.3,28.4,30.33,SSW,205,0.0,0.0,82,0.00,,,0.00,Wunderground v.1.15,2013-04-07 11:48:00,
2013-04-07 07:54:00,34.3,28.8,30.33,SSW,205,0.0,0.0,80,0.00,,,0.00,Wunderground v.1.15,2013-04-07 11:54:00,
2013-04-07 08:00:00,34.7,28.9,30.33,SSW,210,0.0,0.0,79,0.00,,,0.00,Wunderground v.1.15,2013-04-07 12:00:00,
2013-04-07 08:06:00,34.8,29.0,30.33,SSW,211,0.0,0.0,79,0.00,,,0.00,Wunderground v.1.15,2013-04-07 12:06:00,
2013-04-07 08:11:00,35.7,30.4,30.33,WSW,238,0.0,0.0,81,0.00,,,0.00,Wunderground v.1.15,2013-04-07 12:11:00,
2013-04-07 08:17:00,37.3,32.6,30.33,SW,233,0.0,0.0,83,0.00,,,0.00,Wunderground v.1.15,2013-04-07 12:17:00,
2013-04-07 08:23:00,38.1,32.8,30.33,West,261,0.0,2.0,81,0.00,,,0.00,Wunderground v.1.15,2013-04-07 12:23:00,
2013-04-07 08:28:00,38.8,33.2,30.33,SW,218,1.0,2.0,80,0.00,,,0.00,Wunderground v.1.15,2013-04-07 12:28:00,
2013-04-07 08:33:00,39.6,33.9,30.33,SW,224,1.0,2.0,80,0.00,,,0.00,Wunderground v.1.15,2013-04-07 12:33:00,
2013-04-07 08:39:00,40.1,33.5,30.32,SW,225,2.0,3.0,77,0.00,,,0.00,Wunderground v.1.15,2013-04-07 12:39:00,
2013-04-07 08:45:00,40.9,34.9,30.32,SSE,148,2.0,4.0,79,0.00,,,0.00,Wunderground v.1.15,2013-04-07 12:45:00,
2013-04-07 08:50:00,41.8,35.4,30.32,WSW,252,1.0,2.0,78,0.00,,,0.00,Wunderground v.1.15,2013-04-07 12:50:00,
2013-04-07 08:56:00,42.4,36.0,30.32,SSE,162,2.0,4.0,78,0.00,,,0.00,Wunderground v.1.15,2013-04-07 12:56:00,
2013-04-07 09:01:00,42.7,35.7,30.32,South,190,3.0,3.0,76,0.00,,,0.00,Wunderground v.1.15,2013-04-07 13:01:00,
2013-04-07 09:06:00,43.1,35.7,30.32,WSW,257,3.0,6.0,75,0.00,,,0.00,Wunderground v.1.15,2013-04-07 13:06:00,
2013-04-07 09:12:00,43.7,36.0,30.32,WSW,246,3.0,5.0,74,0.00,,,0.00,Wunderground v.1.15,2013-04-07 13:12:00,
2013-04-07 09:17:00,44.3,35.8,30.31,SSW,208,3.0,6.0,72,0.00,,,0.00,Wunderground v.1.15,2013-04-07 13:17:00,
2013-04-07 09:23:00,44.8,35.6,30.31,SW,218,4.0,5.0,70,0.00,,,0.00,Wunderground v.1.15,2013-04-07 13:23:00,
2013-04-07 09:28:00,45.5,35.9,30.31,WSW,253,3.0,5.0,69,0.00,,,0.00,Wunderground v.1.15,2013-04-07 13:28:00,
2013-04-07 09:34:00,46.1,35.4,30.31,SSW,203,4.0,9.0,66,0.00,,,0.00,Wunderground v.1.15,2013-04-07 13:34:00,
2013-04-07 09:39:00,46.6,34.7,30.31,WSW,245,5.0,9.0,63,0.00,,,0.00,Wunderground v.1.15,2013-04-07 13:39:00,
2013-04-07 09:45:00,47.2,34.0,30.31,WSW,243,5.0,8.0,60,0.00,,,0.00,Wunderground v.1.15,2013-04-07 13:45:00,
2013-04-07 09:51:00,47.6,33.5,30.31,WSW,249,6.0,8.0,58,0.00,,,0.00,Wunderground v.1.15,2013-04-07 13:51:00,
2013-04-07 09:57:00,48.0,32.1,30.31,SSW,204,5.0,8.0,54,0.00,,,0.00,Wunderground v.1.15,2013-04-07 13:57:00,
2013-04-07 10:02:00,48.1,32.7,30.30,South,191,7.0,7.0,55,0.00,,,0.00,Wunderground v.1.15,2013-04-07 14:02:00,
2013-04-07 10:07:00,48.3,32.4,30.30,SSE,150,7.0,8.0,54,0.00,,,0.00,Wunderground v.1.15,2013-04-07 14:07:00,
2013-04-07 10:13:00,48.4,31.6,30.30,SW,233,7.0,14.0,52,0.00,,,0.00,Wunderground v.1.15,2013-04-07 14:13:00,
2013-04-07 10:18:00,48.2,31.4,30.30,SW,215,7.0,16.0,52,0.00,,,0.00,Wunderground v.1.15,2013-04-07 14:18:00,
2013-04-07 10:23:00,48.4,31.6,30.30,SSW,195,8.0,10.0,52,0.00,,,0.00,Wunderground v.1.15,2013-04-07 14:23:00,
2013-04-07 10:29:00,48.4,31.6,30.30,West,270,8.0,14.0,52,0.00,,,0.00,Wunderground v.1.15,2013-04-07 14:29:00,
2013-04-07 10:34:00,48.8,31.0,30.29,SSW,200,7.0,12.0,50,0.00,,,0.00,Wunderground v.1.15,2013-04-07 14:34:00,
2013-04-07 10:39:00,49.4,31.5,30.29,SW,215,6.0,12.0,50,0.00,,,0.00,Wunderground v.1.15,2013-04-07 14:39:00,
2013-04-07 10:44:00,50.1,32.7,30.29,SSW,211,5.0,8.0,51,0.00,,,0.00,Wunderground v.1.15,2013-04-07 14:44:00,
2013-04-07 10:49:00,50.1,29.0,30.29,SW,218,6.0,8.0,44,0.00,,,0.00,Wunderground v.1.15,2013-04-07 14:49:00,
2013-04-07 10:54:00,50.0,29.5,30.29,WSW,239,7.0,9.0,45,0.00,,,0.00,Wunderground v.1.15,2013-04-07 14:54:00,
2013-04-07 11:00:00,50.4,29.8,30.28,South,175,8.0,8.0,45,0.00,,,0.00,Wunderground v.1.15,2013-04-07 15:00:00,
2013-04-07 11:07:00,50.2,30.2,30.28,SSE,163,8.0,12.0,46,0.00,,,0.00,Wunderground v.1.15,2013-04-07 15:07:00,
2013-04-07 11:12:00,50.9,31.9,30.28,WSW,245,7.0,9.0,48,0.00,,,0.00,Wunderground v.1.15,2013-04-07 15:12:00,
2013-04-07 11:18:00,50.9,30.3,30.28,SW,215,8.0,13.0,45,0.00,,,0.00,Wunderground v.1.15,2013-04-07 15:18:00,
2013-04-07 11:23:00,51.4,31.3,30.27,SSW,192,8.0,14.0,46,0.00,,,0.00,Wunderground v.1.15,2013-04-07 15:23:00,
2013-04-07 11:28:00,51.4,29.6,30.27,SSE,152,7.0,14.0,43,0.00,,,0.00,Wunderground v.1.15,2013-04-07 15:28:00,
2013-04-07 11:33:00,51.3,28.4,30.27,South,191,8.0,8.0,41,0.00,,,0.00,Wunderground v.1.15,2013-04-07 15:33:00,
2013-04-07 11:39:00,50.8,28.5,30.26,SSE,148,8.0,15.0,42,0.00,,,0.00,Wunderground v.1.15,2013-04-07 15:39:00,
2013-04-07 11:45:00,51.4,30.2,30.26,SE,124,7.0,8.0,44,0.00,,,0.00,Wunderground v.1.15,2013-04-07 15:45:00,
2013-04-07 11:50:00,51.9,31.2,30.26,South,186,7.0,10.0,45,0.00,,,0.00,Wunderground v.1.15,2013-04-07 15:50:00,
2013-04-07 11:55:00,51.0,30.4,30.26,SSW,203,9.0,18.0,45,0.00,,,0.00,Wunderground v.1.15,2013-04-07 15:55:00,
2013-04-07 12:02:00,50.2,31.2,30.26,SW,218,9.0,13.0,48,0.00,,,0.00,Wunderground v.1.15,2013-04-07 16:02:00,
2013-04-07 12:07:00,50.1,31.7,30.25,West,266,9.0,13.0,49,0.00,,,0.00,Wunderground v.1.15,2013-04-07 16:07:00,
2013-04-07 12:13:00,50.4,31.9,30.25,WSW,241,8.0,13.0,49,0.00,,,0.00,Wunderground v.1.15,2013-04-07 16:13:00,
2013-04-07 12:18:00,50.7,32.2,30.25,South,188,9.0,13.0,49,0.00,,,0.00,Wunderground v.1.15,2013-04-07 16:18:00,
2013-04-07 12:24:00,51.0,32.5,30.24,WSW,239,9.0,13.0,49,0.00,,,0.00,Wunderground v.1.15,2013-04-07 16:24:00,
2013-04-07 12:30:00,51.2,34.2,30.24,SW,224,9.0,13.0,52,0.00,,,0.00,Wunderground v.1.15,2013-04-07 16:30:00,
2013-04-07 12:35:00,51.0,33.5,30.24,WSW,239,9.0,13.0,51,0.00,,,0.00,Wunderground v.1.15,2013-04-07 16:35:00,
2013-04-07 12:40:00,50.6,33.6,30.24,WSW,252,9.0,13.0,52,0.00,,,0.00,Wunderground v.1.15,2013-04-07 16:40:00,
2013-04-07 12:46:00,50.9,34.4,30.24,South,173,8.0,13.0,53,0.00,,,0.00,Wunderground v.1.15,2013-04-07 16:46:00,
2013-04-07 12:52:00,51.7,34.6,30.24,SSW,212,6.0,13.0,52,0.00,,,0.00,Wunderground v.1.15,2013-04-07 16:52:00,
2013-04-07 12:57:00,51.8,34.2,30.23,South,178,6.0,14.0,51,0.00,,,0.00,Wunderground v.1.15,2013-04-07 16:57:00,
2013-04-07 13:02:00,52.2,35.1,30.22,SW,218,7.0,13.0,52,0.00,,,0.00,Wunderground v.1.15,2013-04-07 17:02:00,
2013-04-07 13:08:00,52.1,35.5,30.22,SSW,203,8.0,13.0,53,0.00,,,0.00,Wunderground v.1.15,2013-04-07 17:08:00,
2013-04-07 13:14:00,51.8,35.2,30.21,SSW,208,8.0,13.0,53,0.00,,,0.00,Wunderground v.1.15,2013-04-07 17:14:00,
2013-04-07 13:19:00,51.8,36.6,30.21,SSW,200,7.0,13.0,56,0.00,,,0.00,Wunderground v.1.15,2013-04-07 17:19:00,
2013-04-07 13:24:00,51.4,35.3,30.21,West,262,7.0,15.0,54,0.00,,,0.00,Wunderground v.1.15,2013-04-07 17:24:00,
2013-04-07 13:30:00,51.3,36.1,30.20,WSW,253,7.0,7.0,56,0.00,,,0.00,Wunderground v.1.15,2013-04-07 17:30:00,
2013-04-07 13:35:00,51.1,35.9,30.20,WSW,253,7.0,20.0,56,0.00,,,0.00,Wunderground v.1.15,2013-04-07 17:35:00,
2013-04-07 13:40:00,50.7,36.0,30.20,WSW,243,8.0,13.0,57,0.00,,,0.00,Wunderground v.1.15,2013-04-07 17:40:00,
2013-04-07 13:45:00,51.1,36.8,30.19,SE,142,8.0,13.0,58,0.00,,,0.00,Wunderground v.1.15,2013-04-07 17:45:00,
2013-04-07 13:51:00,51.2,36.5,30.19,SSW,207,8.0,13.0,57,0.00,,,0.00,Wunderground v.1.15,2013-04-07 17:51:00,
2013-04-07 13:56:00,51.1,36.8,30.19,SSE,159,8.0,17.0,58,0.00,,,0.00,Wunderground v.1.15,2013-04-07 17:56:00,
2013-04-07 14:02:00,50.8,37.4,30.19,SE,135,8.0,13.0,60,0.00,,,0.00,Wunderground v.1.15,2013-04-07 18:02:00,
2013-04-07 14:07:00,50.9,37.5,30.19,SW,218,7.0,13.0,60,0.00,,,0.00,Wunderground v.1.15,2013-04-07 18:07:00,
2013-04-07 14:13:00,51.0,38.0,30.19,West,266,7.0,13.0,61,0.00,,,0.00,Wunderground v.1.15,2013-04-07 18:13:00,
2013-04-07 14:19:00,51.0,38.0,30.18,SW,218,7.0,13.0,61,0.00,,,0.00,Wunderground v.1.15,2013-04-07 18:19:00,
2013-04-07 14:25:00,50.6,38.1,30.18,West,273,8.0,13.0,62,0.00,,,0.00,Wunderground v.1.15,2013-04-07 18:25:00,
2013-04-07 14:30:00,50.8,38.2,30.18,SSW,195,8.0,8.0,62,0.00,,,0.00,Wunderground v.1.15,2013-04-07 18:30:00,
2013-04-07 14:37:00,50.8,38.7,30.18,SW,232,8.0,13.0,63,0.00,,,0.00,Wunderground v.1.15,2013-04-07 18:37:00,
2013-04-07 14:43:00,51.6,39.4,30.18,SSW,204,8.0,13.0,63,0.00,,,0.00,Wunderground v.1.15,2013-04-07 18:43:00,
2013-04-07 14:49:00,52.2,39.1,30.17,WNW,284,7.0,13.0,61,0.00,,,0.00,Wunderground v.1.15,2013-04-07 18:49:00,
2013-04-07 14:54:00,52.3,39.2,30.17,SSE,150,8.0,14.0,61,0.00,,,0.00,Wunderground v.1.15,2013-04-07 18:54:00,
2013-04-07 14:59:00,51.6,39.0,30.17,SSW,195,10.0,14.0,62,0.00,,,0.00,Wunderground v.1.15,2013-04-07 18:59:00,
2013-04-07 15:04:00,51.0,38.8,30.17,WSW,250,11.0,15.0,63,0.00,,,0.00,Wunderground v.1.15,2013-04-07 19:04:00,
2013-04-07 15:10:00,50.9,39.1,30.16,SW,226,10.0,13.0,64,0.00,,,0.00,Wunderground v.1.15,2013-04-07 19:10:00,
2013-04-07 15:15:00,50.4,39.1,30.16,WSW,246,10.0,16.0,65,0.00,,,0.00,Wunderground v.1.15,2013-04-07 19:15:00,
2013-04-07 15:20:00,50.0,38.7,30.16,WSW,245,11.0,11.0,65,0.00,,,0.00,Wunderground v.1.15,2013-04-07 19:20:00,
2013-04-07 15:25:00,50.1,39.2,30.16,South,180,10.0,16.0,66,0.00,,,0.00,Wunderground v.1.15,2013-04-07 19:25:00,
2013-04-07 15:31:00,50.4,39.5,30.16,South,186,9.0,14.0,66,0.00,,,0.00,Wunderground v.1.15,2013-04-07 19:31:00,
2013-04-07 15:36:00,50.3,39.4,30.15,SW,225,9.0,14.0,66,0.00,,,0.00,Wunderground v.1.15,2013-04-07 19:36:00,
2013-04-07 15:42:00,50.0,39.5,30.15,SE,146,10.0,13.0,67,0.00,,,0.00,Wunderground v.1.15,2013-04-07 19:42:00,
2013-04-07 15:48:00,50.0,39.8,30.14,SSW,211,9.0,13.0,68,0.00,,,0.00,Wunderground v.1.15,2013-04-07 19:48:00,
2013-04-07 15:53:00,50.3,40.1,30.14,SSW,204,8.0,13.0,68,0.00,,,0.00,Wunderground v.1.15,2013-04-07 19:53:00,
2013-04-07 15:59:00,50.5,39.9,30.13,WSW,253,10.0,15.0,67,0.00,,,0.00,Wunderground v.1.15,2013-04-07 19:59:00,
2013-04-07 16:05:00,50.9,40.3,30.13,SW,218,10.0,13.0,67,0.00,,,0.00,Wunderground v.1.15,2013-04-07 20:05:00,
2013-04-07 16:10:00,50.8,40.2,30.13,WSW,254,8.0,13.0,67,0.00,,,0.00,Wunderground v.1.15,2013-04-07 20:10:00,
2013-04-07 16:15:00,50.9,39.9,30.13,SW,222,8.0,13.0,66,0.00,,,0.00,Wunderground v.1.15,2013-04-07 20:15:00,
2013-04-07 16:20:00,50.3,39.8,30.13,WSW,255,9.0,17.0,67,0.00,,,0.00,Wunderground v.1.15,2013-04-07 20:20:00,
2013-04-07 16:26:00,50.4,40.6,30.13,SSW,207,11.0,17.0,69,0.00,,,0.00,Wunderground v.1.15,2013-04-07 20:26:00,
2013-04-07 16:32:00,50.6,40.8,30.13,West,264,9.0,13.0,69,0.00,,,0.00,Wunderground v.1.15,2013-04-07 20:32:00,
2013-04-07 16:38:00,50.4,40.6,30.12,South,170,8.0,13.0,69,0.00,,,0.00,Wunderground v.1.15,2013-04-07 20:38:00,
2013-04-07 16:45:00,49.8,40.4,30.12,SSW,211,9.0,13.0,70,0.00,,,0.00,Wunderground v.1.15,2013-04-07 20:45:00,
2013-04-07 16:50:00,49.8,40.8,30.11,SW,229,8.0,8.0,71,0.00,,,0.00,Wunderground v.1.15,2013-04-07 20:50:00,
2013-04-07 16:56:00,50.4,40.6,30.11,SSW,195,7.0,13.0,69,0.00,,,0.00,Wunderground v.1.15,2013-04-07 20:56:00,
2013-04-07 17:01:00,51.0,41.2,30.11,South,184,7.0,13.0,69,0.00,,,0.00,Wunderground v.1.15,2013-04-07 21:01:00,
2013-04-07 17:07:00,51.1,40.9,30.10,SSW,210,6.0,13.0,68,0.00,,,0.00,Wunderground v.1.15,2013-04-07 21:07:00,
2013-04-07 17:12:00,51.0,41.2,30.10,SSE,156,6.0,13.0,69,0.00,,,0.00,Wunderground v.1.15,2013-04-07 21:12:00,
2013-04-07 17:18:00,50.9,41.1,30.10,WSW,240,6.0,13.0,69,0.00,,,0.00,Wunderground v.1.15,2013-04-07 21:18:00,
2013-04-07 17:23:00,50.8,41.0,30.10,WSW,250,7.0,13.0,69,0.00,,,0.00,Wunderground v.1.15,2013-04-07 21:23:00,
2013-04-07 17:28:00,50.5,41.1,30.11,SW,233,9.0,13.0,70,0.00,,,0.00,Wunderground v.1.15,2013-04-07 21:28:00,
2013-04-07 17:33:00,50.2,40.8,30.09,WSW,239,9.0,13.0,70,0.00,,,0.00,Wunderground v.1.15,2013-04-07 21:33:00,
2013-04-07 17:38:00,49.8,40.8,30.09,SW,236,7.0,13.0,71,0.00,,,0.00,Wunderground v.1.15,2013-04-07 21:38:00,
2013-04-07 17:44:00,49.1,40.5,30.08,SSW,197,7.0,13.0,72,0.00,,,0.00,Wunderground v.1.15,2013-04-07 21:44:00,
2013-04-07 17:50:00,48.8,40.5,30.08,SW,229,9.0,9.0,73,0.00,,,0.00,Wunderground v.1.15,2013-04-07 21:50:00,
2013-04-07 17:56:00,49.2,40.9,30.08,SW,233,9.0,13.0,73,0.00,,,0.00,Wunderground v.1.15,2013-04-07 21:56:00,
2013-04-07 18:01:00,49.3,41.0,30.08,SW,215,7.0,13.0,73,0.00,,,0.00,Wunderground v.1.15,2013-04-07 22:01:00,
2013-04-07 18:07:00,49.3,41.0,30.08,SSW,204,6.0,13.0,73,0.00,,,0.00,Wunderground v.1.15,2013-04-07 22:07:00,
2013-04-07 18:13:00,48.6,41.0,30.08,WSW,243,7.0,13.0,75,0.00,,,0.00,Wunderground v.1.15,2013-04-07 22:13:00,
2013-04-07 18:18:00,48.1,40.9,30.08,SW,235,7.0,13.0,76,0.00,,,0.00,Wunderground v.1.15,2013-04-07 22:18:00,
2013-04-07 18:23:00,47.9,41.0,30.08,SSW,212,7.0,13.0,77,0.00,,,0.00,Wunderground v.1.15,2013-04-07 22:23:00,
2013-04-07 18:29:00,47.5,40.6,30.09,SW,219,7.0,13.0,77,0.00,,,0.00,Wunderground v.1.15,2013-04-07 22:29:00,
2013-04-07 18:35:00,47.2,40.7,30.08,SSW,201,7.0,13.0,78,0.00,,,0.00,Wunderground v.1.15,2013-04-07 22:35:00,
2013-04-07 18:40:00,47.0,40.8,30.08,SW,229,7.0,7.0,79,0.00,,,0.00,Wunderground v.1.15,2013-04-07 22:40:00,
2013-04-07 18:45:00,46.8,41.0,30.08,South,169,6.0,13.0,80,0.00,,,0.00,Wunderground v.1.15,2013-04-07 22:45:00,
2013-04-07 18:51:00,46.6,40.8,30.07,SW,236,6.0,13.0,80,0.00,,,0.00,Wunderground v.1.15,2013-04-07 22:51:00,
2013-04-07 18:57:00,46.3,40.8,30.07,South,184,5.0,13.0,81,0.00,,,0.00,Wunderground v.1.15,2013-04-07 22:57:00,
2013-04-07 19:03:00,46.1,40.9,30.08,SSW,204,4.0,13.0,82,0.00,,,0.00,Wunderground v.1.15,2013-04-07 23:03:00,
2013-04-07 19:08:00,46.1,40.9,30.09,WSW,248,4.0,13.0,82,0.00,,,0.00,Wunderground v.1.15,2013-04-07 23:08:00,
2013-04-07 19:14:00,46.1,41.2,30.08,SW,229,5.0,13.0,83,0.00,,,0.00,Wunderground v.1.15,2013-04-07 23:14:00,
2013-04-07 19:19:00,46.1,41.2,30.08,SW,218,5.0,13.0,83,0.00,,,0.00,Wunderground v.1.15,2013-04-07 23:19:00,
2013-04-07 19:24:00,46.1,41.2,30.08,SW,225,4.0,13.0,83,0.00,,,0.00,Wunderground v.1.15,2013-04-07 23:24:00,
2013-04-07 19:30:00,45.9,41.3,30.08,SSW,200,4.0,13.0,84,0.00,,,0.00,Wunderground v.1.15,2013-04-07 23:30:00,
2013-04-07 19:35:00,45.9,41.3,30.08,SSW,194,5.0,13.0,84,0.00,,,0.00,Wunderground v.1.15,2013-04-07 23:35:00,
2013-04-07 19:40:00,45.8,41.2,30.08,SSW,195,5.0,5.0,84,0.00,,,0.00,Wunderground v.1.15,2013-04-07 23:40:00,
2013-04-07 19:46:00,45.7,41.4,30.08,SW,228,5.0,13.0,85,0.00,,,0.00,Wunderground v.1.15,2013-04-07 23:46:00,
2013-04-07 19:52:00,45.6,41.4,30.08,South,169,4.0,13.0,85,0.00,,,0.00,Wunderground v.1.15,2013-04-07 23:52:00,
2013-04-07 19:57:00,45.6,41.7,30.07,South,186,5.0,13.0,86,0.00,,,0.00,Wunderground v.1.15,2013-04-07 23:57:00,
2013-04-07 20:02:00,45.5,41.6,30.07,South,169,6.0,13.0,86,0.00,,,0.00,Wunderground v.1.15,2013-04-08 00:02:00,
2013-04-07 20:07:00,45.5,41.6,30.07,SSW,196,6.0,13.0,86,0.00,,,0.00,Wunderground v.1.15,2013-04-08 00:07:00,
2013-04-07 20:12:00,45.4,41.5,30.07,SSE,148,5.0,13.0,86,0.00,,,0.00,Wunderground v.1.15,2013-04-08 00:12:00,
2013-04-07 20:18:00,45.3,41.7,30.07,West,271,4.0,13.0,87,0.00,,,0.00,Wunderground v.1.15,2013-04-08 00:18:00,
2013-04-07 20:23:00,45.3,41.7,30.07,SSW,193,5.0,13.0,87,0.00,,,0.00,Wunderground v.1.15,2013-04-08 00:23:00,
2013-04-07 20:28:00,45.3,41.7,30.07,SW,216,5.0,13.0,87,0.00,,,0.00,Wunderground v.1.15,2013-04-08 00:28:00,
2013-04-07 20:35:00,45.5,41.9,30.07,SW,221,5.0,13.0,87,0.00,,,0.00,Wunderground v.1.15,2013-04-08 00:35:00,
2013-04-07 20:40:00,45.5,41.9,30.07,SW,225,5.0,5.0,87,0.00,,,0.00,Wunderground v.1.15,2013-04-08 00:40:00,
2013-04-07 20:46:00,45.6,42.0,30.07,SW,221,4.0,13.0,87,0.00,,,0.00,Wunderground v.1.15,2013-04-08 00:46:00,
2013-04-07 20:52:00,45.5,41.9,30.08,SSW,198,4.0,13.0,87,0.00,,,0.00,Wunderground v.1.15,2013-04-08 00:52:00,
2013-04-07 20:58:00,45.7,42.1,30.08,SSW,211,3.0,13.0,87,0.00,,,0.00,Wunderground v.1.15,2013-04-08 00:58:00,
2013-04-07 21:04:00,45.6,42.0,30.08,WSW,242,3.0,13.0,87,0.00,,,0.00,Wunderground v.1.15,2013-04-08 01:04:00,
2013-04-07 21:10:00,45.9,42.2,30.08,WSW,239,3.0,3.0,87,0.00,,,0.00,Wunderground v.1.15,2013-04-08 01:10:00,
2013-04-07 21:15:00,46.0,42.0,30.08,SSW,200,3.0,13.0,86,0.00,,,0.00,Wunderground v.1.15,2013-04-08 01:15:00,
2013-04-07 21:21:00,46.1,42.1,30.08,SSW,200,3.0,4.0,86,0.00,,,0.00,Wunderground v.1.15,2013-04-08 01:21:00,
2013-04-07 21:26:00,46.2,42.2,30.08,SSE,167,3.0,13.0,86,0.00,,,0.00,Wunderground v.1.15,2013-04-08 01:26:00,
2013-04-07 21:32:00,46.3,42.3,30.08,SW,226,3.0,13.0,86,0.00,,,0.00,Wunderground v.1.15,2013-04-08 01:32:00,
2013-04-07 21:37:00,46.4,42.7,30.08,South,190,3.0,13.0,87,0.00,,,0.00,Wunderground v.1.15,2013-04-08 01:37:00,
2013-04-07 21:43:00,46.6,42.6,30.08,SW,225,3.0,13.0,86,0.00,,,0.00,Wunderground v.1.15,2013-04-08 01:43:00,
2013-04-07 21:48:00,46.6,42.6,30.07,SW,233,3.0,13.0,86,0.00,,,0.00,Wunderground v.1.15,2013-04-08 01:48:00,
2013-04-07 21:53:00,46.8,42.8,30.07,SSE,165,3.0,13.0,86,0.00,,,0.00,Wunderground v.1.15,2013-04-08 01:53:00,
2013-04-07 21:59:00,46.9,42.9,30.07,SW,226,4.0,13.0,86,0.00,,,0.00,Wunderground v.1.15,2013-04-08 01:59:00,
2013-04-07 22:04:00,47.0,43.0,30.07,SSW,211,3.0,13.0,86,0.00,,,0.00,Wunderground v.1.15,2013-04-08 02:04:00,
2013-04-07 22:09:00,47.0,43.0,30.07,SW,232,4.0,13.0,86,0.00,,,0.00,Wunderground v.1.15,2013-04-08 02:09:00,
2013-04-07 22:14:00,46.9,42.9,30.07,SSW,207,3.0,13.0,86,0.00,,,0.00,Wunderground v.1.15,2013-04-08 02:14:00,
2013-04-07 22:20:00,46.7,42.7,30.07,WSW,243,2.0,13.0,86,0.00,,,0.00,Wunderground v.1.15,2013-04-08 02:20:00,
2013-04-07 22:25:00,46.7,43.0,30.06,SW,214,3.0,13.0,87,0.00,,,0.00,Wunderground v.1.15,2013-04-08 02:25:00,
2013-04-07 22:32:00,46.7,43.0,30.06,SW,229,4.0,13.0,87,0.00,,,0.00,Wunderground v.1.15,2013-04-08 02:32:00,
2013-04-07 22:38:00,46.5,42.8,30.06,SSW,204,3.0,13.0,87,0.00,,,0.00,Wunderground v.1.15,2013-04-08 02:38:00,
2013-04-07 22:43:00,46.4,43.0,30.07,WSW,240,3.0,13.0,88,0.00,,,0.00,Wunderground v.1.15,2013-04-08 02:43:00,
2013-04-07 22:50:00,46.5,43.1,30.06,SSW,204,3.0,3.0,88,0.00,,,0.00,Wunderground v.1.15,2013-04-08 02:50:00,
2013-04-07 22:57:00,46.6,43.2,30.06,SW,229,4.0,13.0,88,0.00,,,0.00,Wunderground v.1.15,2013-04-08 02:57:00,
2013-04-07 23:02:00,46.7,43.3,30.06,WSW,248,4.0,13.0,88,0.00,,,0.00,Wunderground v.1.15,2013-04-08 03:02:00,
2013-04-07 23:08:00,46.5,43.1,30.06,West,259,3.0,13.0,88,0.00,,,0.00,Wunderground v.1.15,2013-04-08 03:08:00,
2013-04-07 23:13:00,46.5,43.4,30.06,WSW,249,3.0,3.0,89,0.00,,,0.00,Wunderground v.1.15,2013-04-08 03:13:00,
2013-04-07 23:20:00,46.5,43.4,30.06,SW,218,4.0,4.0,89,0.00,,,0.00,Wunderground v.1.15,2013-04-08 03:20:00,
2013-04-07 23:25:00,46.4,43.3,30.06,SW,229,4.0,6.0,89,0.00,,,0.00,Wunderground v.1.15,2013-04-08 03:25:00,
2013-04-07 23:31:00,46.4,43.3,30.06,WSW,242,4.0,5.0,89,0.00,,,0.00,Wunderground v.1.15,2013-04-08 03:31:00,
2013-04-07 23:36:00,46.4,43.6,30.06,South,186,4.0,6.0,90,0.00,,,0.00,Wunderground v.1.15,2013-04-08 03:36:00,
2013-04-07 23:41:00,46.3,43.5,30.05,SSW,203,4.0,5.0,90,0.00,,,0.00,Wunderground v.1.15,2013-04-08 03:41:00,
2013-04-07 23:47:00,46.2,43.4,30.05,SW,229,4.0,6.0,90,0.00,,,0.00,Wunderground v.1.15,2013-04-08 03:47:00,
2013-04-07 23:53:00,46.2,43.4,30.05,SW,218,4.0,6.0,90,0.00,,,0.00,Wunderground v.1.15,2013-04-08 03:53:00,
2013-04-07 23:58:00,46.1,43.6,30.05,WSW,243,3.0,6.0,91,0.00,,,0.00,Wunderground v.1.15,2013-04-08 03:58:00,